aviador You're here:

RKTN Decoded Metar

TAEGU in KOREA
Report Time2018-06-24 22:00:00
UTC Time2018-06-24 22:48:23
Flight Rules vfr VFR
Wind120° at 01 kt
W.Decomp.*RWY 13: 1.0 kt HW 0.1 kt LCW
W.Rank120° ranks 3
Current wind is below 120° avg. (4.5)
Visibility9999 m
Phenomena:N/A
Clouds:N/A
Expected CloudBase > 2,800 ft AGL from Temp-Dew spread
CeilingNone
Temp23°C (ISA +8)
Dew Point16°C (65% RH)
QNH1010 hPa
Density Alt1,414 ft
Elevation115 ft
Report Wrong Elevation
Raw Report
METAR RKTN 242200Z 12001KT CAVOK 23/16 Q1010 NOSIG=

Extra information for RKTN:More info

Metar Taf Metar & Taf Last 4 Metars F.Rules Stats Wind Profile Meteogram Temp Stats Airport Information Weather charts Add Link Nearby VenuesMetar ALERT Operation Metar Decoded Social comments